createdAt,value
2023-04-21T00:02:17.485Z,5.65
2023-04-21T00:04:46.029Z,5.60
2023-04-21T00:07:14.795Z,5.63
2023-04-21T00:09:42.208Z,6.97
2023-04-21T00:12:10.561Z,5.40
2023-04-21T00:14:39.932Z,6.88
2023-04-21T00:17:07.193Z,5.80
2023-04-21T00:19:35.260Z,6.10
2023-04-21T00:22:04.535Z,5.68
2023-04-21T00:24:31.760Z,5.63
2023-04-21T00:26:59.145Z,6.75
2023-04-21T00:29:26.452Z,5.20
2023-04-21T00:31:53.853Z,6.88
2023-04-21T00:34:21.454Z,6.07
2023-04-21T00:36:48.665Z,6.30
2023-04-21T00:39:15.950Z,5.90
2023-04-21T00:44:24.618Z,6.32
2023-04-21T00:46:51.894Z,6.88
2023-04-21T00:49:19.257Z,6.03
2023-04-21T00:51:46.685Z,6.43
2023-04-21T00:54:14.070Z,5.40
2023-04-21T00:56:41.324Z,5.95
2023-04-21T00:59:09.112Z,6.45
2023-04-21T01:01:36.645Z,6.05
2023-04-21T01:04:04.589Z,5.88
2023-04-21T01:06:34.803Z,5.80
2023-04-21T01:09:03.191Z,6.63
2023-04-21T01:11:31.712Z,7.20
2023-04-21T01:13:59.037Z,6.57
2023-04-21T01:16:26.999Z,6.25
2023-04-21T01:18:54.387Z,6.75
2023-04-21T01:21:22.082Z,7.75
2023-04-21T01:23:49.436Z,6.80
2023-04-21T01:26:23.060Z,7.93
2023-04-21T01:28:50.290Z,7.13
2023-04-21T01:31:18.304Z,7.07
2023-04-21T01:33:45.704Z,6.53
2023-04-21T01:36:13.319Z,6.72
2023-04-21T01:38:41.170Z,6.03
2023-04-21T01:41:08.929Z,6.03
2023-04-21T01:43:37.164Z,6.20
2023-04-21T01:46:05.479Z,5.50
2023-04-21T01:48:32.868Z,6.80
2023-04-21T01:51:00.144Z,6.00
2023-04-21T01:53:27.376Z,5.15
2023-04-21T01:55:54.580Z,6.15
2023-04-21T01:58:21.993Z,6.55
2023-04-21T02:00:49.294Z,6.47
2023-04-21T02:03:16.635Z,6.57
2023-04-21T02:05:44.288Z,6.78
2023-04-21T02:08:11.580Z,5.70
2023-04-21T02:10:38.805Z,6.25
2023-04-21T02:13:06.405Z,6.40
2023-04-21T02:15:33.867Z,5.70
2023-04-21T02:18:01.281Z,6.03
2023-04-21T02:20:29.052Z,5.90
2023-04-21T02:22:56.302Z,5.50
2023-04-21T02:25:23.538Z,6.15
2023-04-21T02:27:50.837Z,4.93
2023-04-21T02:30:18.123Z,5.85
2023-04-21T02:32:45.561Z,4.95
2023-04-21T02:35:13.003Z,5.72
2023-04-21T02:37:40.366Z,4.60
2023-04-21T02:40:08.258Z,5.07
2023-04-21T02:42:35.665Z,4.97
2023-04-21T02:45:03.013Z,4.82
2023-04-21T02:47:30.581Z,4.60
2023-04-21T02:49:57.854Z,5.10
2023-04-21T02:52:25.130Z,5.30
2023-04-21T02:54:52.412Z,5.15
2023-04-21T02:57:19.698Z,4.97
2023-04-21T02:59:46.913Z,4.53
2023-04-21T03:02:14.382Z,4.60
2023-04-21T03:04:41.689Z,5.55
2023-04-21T03:07:13.712Z,4.45
2023-04-21T03:09:41.196Z,4.50
2023-04-21T03:12:08.496Z,5.20
2023-04-21T03:14:36.108Z,5.32
2023-04-21T03:17:03.393Z,4.35
2023-04-21T03:19:31.188Z,5.07
2023-04-21T03:21:58.392Z,4.25
2023-04-21T03:24:26.272Z,4.50
2023-04-21T03:26:53.506Z,5.13
2023-04-21T03:29:20.962Z,5.07
2023-04-21T03:31:48.343Z,5.10
2023-04-21T03:34:15.935Z,5.57
2023-04-21T03:36:43.279Z,5.80
2023-04-21T03:39:19.794Z,5.82
2023-04-21T03:41:48.189Z,6.85
2023-04-21T03:44:15.565Z,5.70
2023-04-21T03:46:42.791Z,5.90
2023-04-21T03:49:10.177Z,6.65
2023-04-21T03:51:37.841Z,6.68
2023-04-21T03:54:05.092Z,6.25
2023-04-21T03:56:32.696Z,6.72
2023-04-21T03:58:59.939Z,7.22
2023-04-21T04:01:27.172Z,6.80
2023-04-21T04:03:54.582Z,5.75
2023-04-21T04:06:21.982Z,5.90
2023-04-21T04:08:49.202Z,5.65
2023-04-21T04:11:16.564Z,6.78
2023-04-21T04:13:44.297Z,6.35
2023-04-21T04:16:11.670Z,5.60
2023-04-21T04:18:38.976Z,5.13
2023-04-21T04:21:07.522Z,4.35
2023-04-21T04:23:35.316Z,5.05
2023-04-21T04:26:05.654Z,4.90
2023-04-21T04:28:33.795Z,4.95
2023-04-21T04:31:01.269Z,5.10
2023-04-21T04:33:29.089Z,5.20
2023-04-21T04:35:56.391Z,5.55
2023-04-21T04:38:23.694Z,5.10
2023-04-21T04:40:55.222Z,5.47
2023-04-21T04:43:22.984Z,5.40
2023-04-21T04:45:50.281Z,5.68
2023-04-21T04:48:17.612Z,5.10
2023-04-21T04:50:45.007Z,5.75
2023-04-21T04:53:12.268Z,6.22
2023-04-21T04:55:39.494Z,5.80
2023-04-21T04:58:06.933Z,6.50
2023-04-21T05:00:34.280Z,7.25
2023-04-21T05:03:01.617Z,8.15
2023-04-21T05:05:29.151Z,7.43
2023-04-21T05:07:57.338Z,7.65
2023-04-21T05:10:24.691Z,7.32
2023-04-21T05:12:52.048Z,6.80
2023-04-21T05:15:19.334Z,8.27
2023-04-21T05:17:46.709Z,7.82
2023-04-21T05:20:13.957Z,7.60
2023-04-21T05:22:41.255Z,9.13
2023-04-21T05:25:09.982Z,8.07
2023-04-21T05:27:37.465Z,7.78
2023-04-21T05:30:04.960Z,6.90
2023-04-21T05:32:32.901Z,6.15
2023-04-21T05:35:00.383Z,6.10
2023-04-21T05:37:27.781Z,6.35
2023-04-21T05:39:55.027Z,7.20
2023-04-21T05:42:22.304Z,8.88
2023-04-21T05:44:49.511Z,8.05
2023-04-21T05:47:16.743Z,8.40
2023-04-21T05:49:50.237Z,8.45
2023-04-21T05:52:17.968Z,7.63
2023-04-21T05:54:45.401Z,8.05
2023-04-21T05:57:12.725Z,7.47
2023-04-21T05:59:40.025Z,8.13
2023-04-21T06:02:07.766Z,8.10
2023-04-21T06:04:35.265Z,8.15
2023-04-21T06:07:09.772Z,7.82
2023-04-21T06:09:38.324Z,8.88
2023-04-21T06:12:06.131Z,8.13
2023-04-21T06:14:34.305Z,7.55
2023-04-21T06:17:01.558Z,6.82
2023-04-21T06:19:29.431Z,6.70
2023-04-21T06:21:57.143Z,6.53
2023-04-21T06:24:27.143Z,7.18
2023-04-21T06:26:54.373Z,6.72
2023-04-21T06:29:21.934Z,7.57
2023-04-21T06:31:49.392Z,7.30
2023-04-21T06:34:16.913Z,7.10
2023-04-21T06:36:44.498Z,6.55
2023-04-21T06:39:11.830Z,6.93
2023-04-21T06:41:39.224Z,8.52
2023-04-21T06:44:06.465Z,7.47
2023-04-21T06:46:34.535Z,7.97
2023-04-21T06:49:01.767Z,9.80
2023-04-21T06:51:29.306Z,9.98
2023-04-21T06:53:56.606Z,8.55
2023-04-21T06:56:23.849Z,7.85
2023-04-21T06:58:51.311Z,6.75
2023-04-21T07:01:18.669Z,7.10
2023-04-21T07:03:46.113Z,6.88
2023-04-21T07:06:13.399Z,6.25
2023-04-21T07:08:41.449Z,6.15
2023-04-21T07:11:08.760Z,6.03
2023-04-21T07:13:36.539Z,5.88
2023-04-21T07:16:05.501Z,7.15
2023-04-21T07:18:34.622Z,6.30
2023-04-21T07:21:01.935Z,6.68
2023-04-21T07:23:29.347Z,7.00
2023-04-21T07:25:56.589Z,5.95
2023-04-21T07:28:23.870Z,5.88
2023-04-21T07:30:51.651Z,4.93
2023-04-21T07:33:19.503Z,5.97
2023-04-21T07:35:46.747Z,6.88
2023-04-21T07:38:14.025Z,6.10
2023-04-21T07:40:41.304Z,6.32
2023-04-21T07:43:08.670Z,6.88
2023-04-21T07:45:35.922Z,6.18
2023-04-21T07:48:03.412Z,6.15
2023-04-21T07:50:30.870Z,7.20
2023-04-21T07:52:58.533Z,7.18
2023-04-21T07:55:25.780Z,6.03
2023-04-21T07:57:53.000Z,7.82
2023-04-21T08:00:20.574Z,6.72
2023-04-21T08:02:48.139Z,6.72
2023-04-21T08:05:15.791Z,6.47
2023-04-21T08:07:43.612Z,6.45
2023-04-21T08:10:11.472Z,6.13
2023-04-21T08:12:39.619Z,6.05
2023-04-21T08:15:08.476Z,5.55
2023-04-21T08:17:36.576Z,5.07
2023-04-21T08:20:04.297Z,4.60
2023-04-21T08:22:32.060Z,4.93
2023-04-21T08:24:59.323Z,7.07
2023-04-21T08:27:26.631Z,5.85
2023-04-21T08:29:54.001Z,4.68
2023-04-21T08:32:23.649Z,5.57
2023-04-21T08:34:51.935Z,5.68
2023-04-21T08:37:19.619Z,5.50
2023-04-21T08:39:47.268Z,5.57
2023-04-21T08:42:15.238Z,5.28
2023-04-21T08:44:42.879Z,6.07
2023-04-21T08:47:10.663Z,4.85
2023-04-21T08:49:38.630Z,5.63
2023-04-21T08:52:06.139Z,5.72
2023-04-21T08:54:34.292Z,5.35
2023-04-21T08:57:14.210Z,5.32
2023-04-21T08:59:43.257Z,6.47
2023-04-21T09:02:17.618Z,4.75
2023-04-21T09:04:46.995Z,5.20
2023-04-21T09:07:36.405Z,6.80
2023-04-21T09:10:04.312Z,7.20
2023-04-21T09:12:33.077Z,5.75
2023-04-21T09:15:01.146Z,5.25
2023-04-21T09:17:32.669Z,5.15
2023-04-21T09:20:20.880Z,5.68
2023-04-21T09:22:49.687Z,6.07
2023-04-21T09:25:17.915Z,6.13
2023-04-21T09:27:46.425Z,7.22
2023-04-21T09:30:13.959Z,7.30
2023-04-21T09:32:41.719Z,5.93
2023-04-21T09:35:12.245Z,5.82
2023-04-21T09:37:39.769Z,5.97
2023-04-21T09:40:07.324Z,5.68
2023-04-21T09:42:39.239Z,4.53
2023-04-21T09:45:29.032Z,5.63
2023-04-21T09:47:59.579Z,6.60
2023-04-21T09:51:01.824Z,5.88
2023-04-21T09:53:16.970Z,7.45
2023-04-21T09:55:44.956Z,5.50
2023-04-21T09:58:12.217Z,4.82
2023-04-21T10:00:39.929Z,5.97
2023-04-21T10:03:10.538Z,5.95
2023-04-21T10:08:12.072Z,5.07
2023-04-21T10:10:39.423Z,4.78
2023-04-21T10:13:06.929Z,6.30
2023-04-21T10:15:40.248Z,7.20
2023-04-21T10:18:15.371Z,6.97
2023-04-21T10:21:06.192Z,7.38
2023-04-21T10:23:43.791Z,6.65
2023-04-21T10:26:17.456Z,6.25
2023-04-21T10:28:45.666Z,5.75
2023-04-21T10:31:39.103Z,6.22
2023-04-21T10:34:09.210Z,6.10
2023-04-21T10:36:48.757Z,5.80
2023-04-21T10:39:38.060Z,5.85
2023-04-21T10:42:21.101Z,6.50
2023-04-21T10:44:57.694Z,5.65
2023-04-21T10:47:38.460Z,4.38
2023-04-21T10:50:26.105Z,6.05
2023-04-21T10:53:11.404Z,5.63
2023-04-21T10:55:38.862Z,5.53
2023-04-21T10:58:09.099Z,5.00
2023-04-21T11:00:38.633Z,4.13
2023-04-21T11:03:07.359Z,4.35
2023-04-21T11:05:38.595Z,4.60
2023-04-21T11:08:14.718Z,4.93
2023-04-21T11:10:55.884Z,4.80
2023-04-21T11:13:26.102Z,5.18
2023-04-21T11:16:00.622Z,5.50
2023-04-21T11:18:43.841Z,3.90
2023-04-21T11:21:13.666Z,4.05
2023-04-21T11:23:42.261Z,4.25
2023-04-21T11:26:09.538Z,3.60
2023-04-21T11:28:36.842Z,3.30
2023-04-21T11:31:04.976Z,4.00
2023-04-21T11:33:37.988Z,3.30
2023-04-21T11:36:07.545Z,3.40
2023-04-21T11:38:41.193Z,3.13
2023-04-21T11:41:09.997Z,2.58
2023-04-21T11:43:37.677Z,3.30
2023-04-21T11:46:33.468Z,3.50
2023-04-21T11:49:01.035Z,3.00
2023-04-21T11:51:47.612Z,2.78
2023-04-21T11:54:14.908Z,2.78
2023-04-21T11:56:43.581Z,2.58
2023-04-21T11:59:11.993Z,2.15
2023-04-21T12:01:48.920Z,2.60
2023-04-21T12:04:17.667Z,2.03
2023-04-21T12:06:46.159Z,2.10
2023-04-21T12:09:17.912Z,2.22
2023-04-21T12:11:49.686Z,2.17
2023-04-21T12:14:21.550Z,2.35
2023-04-21T12:16:50.633Z,2.28
2023-04-21T12:19:41.222Z,3.55
2023-04-21T12:22:09.459Z,2.22
2023-04-21T12:24:37.045Z,2.30
2023-04-21T12:27:04.591Z,2.30
2023-04-21T12:29:32.324Z,2.00
2023-04-21T12:31:59.738Z,2.50
2023-04-21T12:34:27.044Z,2.50
2023-04-21T12:36:54.412Z,2.55
2023-04-21T12:39:22.205Z,2.55
2023-04-21T12:41:49.459Z,2.38
2023-04-21T12:44:16.852Z,2.03
2023-04-21T12:46:44.177Z,2.15
2023-04-21T12:49:11.742Z,2.00
2023-04-21T12:51:38.983Z,2.13
2023-04-21T12:54:06.341Z,2.50
2023-04-21T12:56:33.599Z,2.65
2023-04-21T12:59:00.843Z,3.38
2023-04-21T13:01:28.118Z,3.38
2023-04-21T13:03:55.503Z,3.92
2023-04-21T13:06:22.953Z,3.28
2023-04-21T13:08:50.222Z,2.88
2023-04-21T13:11:17.477Z,3.03
2023-04-21T13:13:44.708Z,3.70
2023-04-21T13:16:12.019Z,2.85
2023-04-21T13:18:39.909Z,2.95
2023-04-21T13:21:07.198Z,3.20
2023-04-21T13:23:34.654Z,2.65
2023-04-21T13:26:02.067Z,2.20
2023-04-21T13:28:30.038Z,2.70
2023-04-21T13:30:57.708Z,3.08
2023-04-21T13:33:24.957Z,2.78
2023-04-21T13:35:52.332Z,2.72
2023-04-21T13:38:20.778Z,2.78
2023-04-21T13:40:49.083Z,2.78
2023-04-21T13:43:16.604Z,3.17
2023-04-21T13:45:43.862Z,2.85
2023-04-21T13:48:11.340Z,3.75
2023-04-21T13:50:39.211Z,2.55
2023-04-21T13:53:06.615Z,2.90
2023-04-21T13:55:34.168Z,2.20
2023-04-21T13:58:01.823Z,2.40
2023-04-21T14:00:29.245Z,2.60
2023-04-21T14:02:56.727Z,3.75
2023-04-21T14:05:24.412Z,3.05
2023-04-21T14:07:51.859Z,3.05
2023-04-21T14:10:19.325Z,2.60
2023-04-21T14:12:48.051Z,2.42
2023-04-21T14:15:15.500Z,2.67
2023-04-21T14:17:42.893Z,2.13
2023-04-21T14:20:10.919Z,2.00
2023-04-21T14:22:38.332Z,1.95
2023-04-21T14:25:05.834Z,2.40
2023-04-21T14:27:33.151Z,2.15
2023-04-21T14:30:00.511Z,2.92
2023-04-21T14:32:28.150Z,2.42
2023-04-21T14:34:58.529Z,2.13
2023-04-21T14:37:26.273Z,2.22
2023-04-21T14:39:53.671Z,2.33
2023-04-21T14:42:21.080Z,2.00
2023-04-21T14:44:48.460Z,2.15
2023-04-21T14:47:15.839Z,2.17
2023-04-21T14:49:43.515Z,1.95
2023-04-21T14:52:10.768Z,1.85
2023-04-21T14:54:40.213Z,2.35
2023-04-21T14:57:19.873Z,2.72
2023-04-21T14:59:52.027Z,2.30
2023-04-21T15:02:20.423Z,2.75
2023-04-21T15:04:47.954Z,3.28
2023-04-21T15:07:17.151Z,3.25
2023-04-21T15:09:48.558Z,3.33
2023-04-21T15:12:15.898Z,3.08
2023-04-21T15:14:43.230Z,2.90
2023-04-21T15:17:10.707Z,3.40
2023-04-21T15:19:38.284Z,2.95
2023-04-21T15:22:05.615Z,2.97
2023-04-21T15:24:32.884Z,3.65
2023-04-21T15:27:00.177Z,2.50
2023-04-21T15:29:27.409Z,2.63
2023-04-21T15:31:54.701Z,3.33
2023-04-21T15:34:22.016Z,3.65
2023-04-21T15:36:49.257Z,3.28
2023-04-21T15:39:16.571Z,3.40
2023-04-21T15:41:43.877Z,3.67
2023-04-21T15:44:11.166Z,4.30
2023-04-21T15:46:38.684Z,4.07
2023-04-21T15:49:06.028Z,3.97
2023-04-21T15:51:34.921Z,3.05
2023-04-21T15:54:02.246Z,2.97
2023-04-21T15:56:29.771Z,3.20
2023-04-21T15:58:57.210Z,3.13
2023-04-21T16:01:24.688Z,3.83
2023-04-21T16:03:52.323Z,5.13
2023-04-21T16:06:21.450Z,4.90
2023-04-21T16:08:48.885Z,4.50
2023-04-21T16:11:16.165Z,5.95
2023-04-21T16:13:43.751Z,5.18
2023-04-21T16:16:11.345Z,5.25
2023-04-21T16:18:38.655Z,4.97
2023-04-21T16:21:06.684Z,5.00
2023-04-21T16:23:33.979Z,4.78
2023-04-21T16:26:02.226Z,3.75
2023-04-21T16:28:29.732Z,3.28
2023-04-21T16:30:57.058Z,3.72
2023-04-21T16:33:24.416Z,3.40
2023-04-21T16:35:56.100Z,3.13
2023-04-21T16:38:24.899Z,3.30
2023-04-21T16:40:52.251Z,3.03
2023-04-21T16:43:19.513Z,3.08
2023-04-21T16:45:46.971Z,2.85
2023-04-21T16:48:14.767Z,3.10
2023-04-21T16:50:42.324Z,3.10
2023-04-21T16:53:09.509Z,3.15
2023-04-21T16:55:37.261Z,2.60
2023-04-21T16:58:04.510Z,3.42
2023-04-21T17:00:31.939Z,3.40
2023-04-21T17:02:59.532Z,3.10
2023-04-21T17:05:27.316Z,3.10
2023-04-21T17:07:54.939Z,3.05
2023-04-21T17:10:22.284Z,3.17
2023-04-21T17:12:50.298Z,3.90
2023-04-21T17:15:17.578Z,3.22
2023-04-21T17:17:47.128Z,3.13
2023-04-21T17:20:14.585Z,3.10
2023-04-21T17:22:41.985Z,3.45
2023-04-21T17:25:09.788Z,3.20
2023-04-21T17:27:38.046Z,3.58
2023-04-21T17:30:05.890Z,3.55
2023-04-21T17:32:34.309Z,2.70
2023-04-21T17:35:02.563Z,2.88
2023-04-21T17:37:30.470Z,2.60
2023-04-21T17:40:00.356Z,2.65
2023-04-21T17:42:29.449Z,2.55
2023-04-21T17:44:56.773Z,2.80
2023-04-21T17:47:24.217Z,3.45
2023-04-21T17:49:51.880Z,3.72
2023-04-21T17:52:19.183Z,4.40
2023-04-21T17:54:46.600Z,4.25
2023-04-21T17:57:13.822Z,4.18
2023-04-21T17:59:41.122Z,3.58
2023-04-21T18:02:08.616Z,4.05
2023-04-21T18:04:36.870Z,4.85
2023-04-21T18:07:04.500Z,4.85
2023-04-21T18:09:32.169Z,4.85
2023-04-21T18:11:59.448Z,4.68
2023-04-21T18:14:27.091Z,5.00
2023-04-21T18:16:54.640Z,5.90
2023-04-21T18:19:21.946Z,5.95
2023-04-21T18:21:49.163Z,4.65
2023-04-21T18:24:16.458Z,5.65
2023-04-21T18:26:43.813Z,5.25
2023-04-21T18:29:11.092Z,5.45
2023-04-21T18:31:38.440Z,4.60
2023-04-21T18:34:06.198Z,4.65
2023-04-21T18:36:34.498Z,4.82
2023-04-21T18:39:03.275Z,3.60
2023-04-21T18:41:30.622Z,4.22
2023-04-21T18:43:57.897Z,4.05
2023-04-21T18:46:25.199Z,4.28
2023-04-21T18:48:53.284Z,3.80
2023-04-21T18:51:20.652Z,3.78
2023-04-21T18:53:47.958Z,4.40
2023-04-21T18:56:15.692Z,3.70
2023-04-21T18:58:42.925Z,4.25
2023-04-21T19:01:10.266Z,3.70
2023-04-21T19:03:37.771Z,4.43
2023-04-21T19:06:05.881Z,3.70
2023-04-21T19:08:42.088Z,4.40
2023-04-21T19:11:11.474Z,4.25
2023-04-21T19:13:38.909Z,3.85
2023-04-21T19:16:08.361Z,4.70
2023-04-21T19:18:36.043Z,3.95
2023-04-21T19:21:07.164Z,4.20
2023-04-21T19:23:34.744Z,4.55
2023-04-21T19:26:05.032Z,5.03
2023-04-21T19:28:32.538Z,4.33
2023-04-21T19:30:59.836Z,3.95
2023-04-21T19:33:27.192Z,4.25
2023-04-21T19:35:54.490Z,6.13
2023-04-21T19:38:22.290Z,5.97
2023-04-21T19:40:49.820Z,7.53
2023-04-21T19:43:19.384Z,6.68
2023-04-21T19:45:47.451Z,7.65
2023-04-21T19:48:14.934Z,6.63
2023-04-21T19:50:42.531Z,5.50
2023-04-21T19:53:14.593Z,7.10
2023-04-21T19:55:42.560Z,5.45
2023-04-21T19:58:10.038Z,5.18
2023-04-21T20:00:37.424Z,6.40
2023-04-21T20:03:06.604Z,6.15
2023-04-21T20:05:34.002Z,5.95
2023-04-21T20:08:01.545Z,6.40
2023-04-21T20:10:28.992Z,6.07
2023-04-21T20:12:56.488Z,5.03
2023-04-21T20:15:23.856Z,4.72
2023-04-21T20:17:51.143Z,4.00
2023-04-21T20:20:18.468Z,3.60
2023-04-21T20:22:45.985Z,3.95
2023-04-21T20:25:13.501Z,3.08
2023-04-21T20:27:41.120Z,3.17
2023-04-21T20:30:08.704Z,3.70
2023-04-21T20:32:36.728Z,3.30
2023-04-21T20:35:04.041Z,3.15
2023-04-21T20:37:33.568Z,3.60
2023-04-21T20:40:08.035Z,2.85
2023-04-21T20:42:35.445Z,3.35
2023-04-21T20:45:03.560Z,3.05
2023-04-21T20:47:30.981Z,2.92
2023-04-21T20:49:59.008Z,3.30
2023-04-21T20:52:26.362Z,4.25
2023-04-21T20:54:53.574Z,3.08
2023-04-21T20:57:21.127Z,3.15
2023-04-21T20:59:48.353Z,3.20
2023-04-21T21:02:15.639Z,3.53
2023-04-21T21:04:43.139Z,3.78
2023-04-21T21:07:10.591Z,3.08
2023-04-21T21:09:38.414Z,3.42
2023-04-21T21:12:05.969Z,2.90
2023-04-21T21:14:34.379Z,3.70
2023-04-21T21:17:02.892Z,3.10
2023-04-21T21:19:30.609Z,3.67
2023-04-21T21:21:57.861Z,3.42
2023-04-21T21:24:26.470Z,3.70
2023-04-21T21:26:53.826Z,3.97
2023-04-21T21:29:21.068Z,3.60
2023-04-21T21:31:48.418Z,4.05
2023-04-21T21:34:15.879Z,3.95
2023-04-21T21:36:43.149Z,3.88
2023-04-21T21:39:11.395Z,3.58
2023-04-21T21:41:38.809Z,3.97
2023-04-21T21:44:06.884Z,3.38
2023-04-21T21:46:34.218Z,4.50
2023-04-21T21:49:01.454Z,3.45
2023-04-21T21:51:28.965Z,3.53
2023-04-21T21:53:56.649Z,3.97
2023-04-21T21:56:25.709Z,3.72
2023-04-21T21:58:53.333Z,3.65
2023-04-21T22:01:20.785Z,3.42
2023-04-21T22:03:48.632Z,4.10
2023-04-21T22:06:17.341Z,3.90
2023-04-21T22:08:45.692Z,3.60
2023-04-21T22:11:13.037Z,3.45
2023-04-21T22:13:40.719Z,3.78
2023-04-21T22:16:08.576Z,3.85
2023-04-21T22:18:36.515Z,3.72
2023-04-21T22:21:04.140Z,4.10
2023-04-21T22:23:32.036Z,3.70
2023-04-21T22:25:59.252Z,3.88
2023-04-21T22:28:26.540Z,3.70
2023-04-21T22:30:54.218Z,3.85
2023-04-21T22:33:21.456Z,4.35
2023-04-21T22:35:48.653Z,4.40
2023-04-21T22:38:15.965Z,4.28
2023-04-21T22:40:43.226Z,4.38
2023-04-21T22:43:10.528Z,4.53
2023-04-21T22:45:38.116Z,4.53
2023-04-21T22:48:06.037Z,4.20
2023-04-21T22:50:34.534Z,4.88
2023-04-21T22:53:01.752Z,5.07
2023-04-21T22:55:29.318Z,5.13
2023-04-21T22:57:56.515Z,5.05
2023-04-21T23:00:23.895Z,4.28
2023-04-21T23:02:51.339Z,4.70
2023-04-21T23:05:18.803Z,4.50
2023-04-21T23:07:46.041Z,4.93
2023-04-21T23:10:14.322Z,4.75
2023-04-21T23:12:41.625Z,4.65
2023-04-21T23:15:09.143Z,5.45
2023-04-21T23:17:36.858Z,5.07
2023-04-21T23:20:05.588Z,5.47
2023-04-21T23:22:33.105Z,5.10
2023-04-21T23:25:00.621Z,5.18
2023-04-21T23:27:27.839Z,5.45
2023-04-21T23:29:55.553Z,5.25
2023-04-21T23:32:22.812Z,5.80
2023-04-21T23:34:50.187Z,5.38
2023-04-21T23:37:17.410Z,5.70
2023-04-21T23:39:44.685Z,5.72
2023-04-21T23:42:11.966Z,5.53
2023-04-21T23:44:40.411Z,4.78
2023-04-21T23:47:07.696Z,4.88
2023-04-21T23:49:35.913Z,6.15
2023-04-21T23:52:03.301Z,5.15
2023-04-21T23:54:30.637Z,5.50
2023-04-21T23:56:58.456Z,5.57
2023-04-21T23:59:25.873Z,4.35
